Time;durP1;ratioP1;P1;durP2;ratioP2;P2;SDS_P1;SDS_P2;PMS_P1;PMS_P2;Temp;Humidity;BMP_temperature;BMP_pressure;BME280_temperature;BME280_humidity;BME280_pressure;Samples;Min_cycle;Max_cycle;Signal;HPM_P1;HPM_P2
2020/12/23 00:00:54;;;;;;;0.35;0.10;;;;;;;17.03;61.11;100554.81;5021262;27;115244;-58
2020/12/23 00:03:20;;;;;;;0.73;0.20;;;;;;;17.03;61.37;100556.72;5022386;27;98888;-58
2020/12/23 00:05:46;;;;;;;0.40;0.10;;;;;;;17.03;60.79;100556.72;5005158;27;98794;-58
2020/12/23 00:08:12;;;;;;;0.50;0.10;;;;;;;17.00;61.09;100538.28;5001933;27;98082;-58
2020/12/23 00:10:38;;;;;;;1.00;0.10;;;;;;;17.01;61.27;100554.28;4966236;27;109014;-58
2020/12/23 00:13:04;;;;;;;0.68;0.10;;;;;;;17.01;61.64;100561.66;5001665;27;97660;-58
2020/12/23 00:15:30;;;;;;;0.40;0.10;;;;;;;17.00;61.08;100579.13;5001758;27;98513;-58
2020/12/23 00:17:56;;;;;;;0.50;0.10;;;;;;;17.01;60.96;100589.69;5001253;27;111192;-59
2020/12/23 00:20:22;;;;;;;0.45;0.10;;;;;;;17.01;61.27;100594.34;5001044;27;121991;-58
2020/12/23 00:22:48;;;;;;;0.82;0.20;;;;;;;17.01;61.38;100597.84;5000311;27;127940;-58
2020/12/23 00:25:14;;;;;;;0.52;0.10;;;;;;;16.98;61.15;100608.56;5000931;27;126716;-58
2020/12/23 00:27:40;;;;;;;0.85;0.30;;;;;;;16.98;61.13;100616.72;5000621;27;124239;-58
2020/12/23 00:30:06;;;;;;;0.77;0.28;;;;;;;16.99;60.97;100623.81;5002004;27;100771;-58
2020/12/23 00:32:32;;;;;;;0.85;0.30;;;;;;;16.98;61.20;100622.16;5004217;27;98180;-59
2020/12/23 00:34:58;;;;;;;0.70;0.20;;;;;;;16.98;60.96;100606.66;5020216;27;127721;-59
2020/12/23 00:37:24;;;;;;;0.80;0.30;;;;;;;16.98;61.41;100616.72;5020738;27;124163;-58
2020/12/23 00:39:50;;;;;;;1.02;0.30;;;;;;;16.99;60.74;100626.53;5020929;27;120458;-58
2020/12/23 00:42:21;;;;;;;0.70;0.20;;;;;;;17.00;60.99;100614.50;5021913;27;98557;-57
2020/12/23 00:44:47;;;;;;;0.80;0.20;;;;;;;16.95;60.94;100615.44;5019582;27;99012;-58
2020/12/23 00:47:13;;;;;;;0.88;0.20;;;;;;;16.94;61.09;100611.13;5017416;27;106482;-58
2020/12/23 00:49:39;;;;;;;0.80;0.20;;;;;;;16.93;60.98;100604.84;5001089;27;106875;-57
2020/12/23 00:52:05;;;;;;;0.60;0.20;;;;;;;16.96;61.04;100599.91;5001971;27;98446;-58
2020/12/23 00:54:31;;;;;;;0.63;0.20;;;;;;;16.96;61.16;100613.50;5001317;27;101489;-58
2020/12/23 00:56:57;;;;;;;0.63;0.10;;;;;;;16.93;60.93;100607.56;5000738;27;111305;-58
2020/12/23 00:59:23;;;;;;;0.68;0.20;;;;;;;16.93;61.08;100610.28;4981308;27;121962;-58
2020/12/23 01:01:53;;;;;;;0.50;0.20;;;;;;;16.94;60.91;100616.56;5010246;27;111645;-58
2020/12/23 01:04:19;;;;;;;0.60;0.20;;;;;;;16.93;60.94;100609.47;5018025;27;120550;-58
2020/12/23 01:06:45;;;;;;;0.80;0.13;;;;;;;16.91;61.10;100609.00;5003150;27;126763;-58
2020/12/23 01:09:11;;;;;;;0.73;0.10;;;;;;;16.90;61.05;100626.44;5003701;27;121630;-58
2020/12/23 01:11:37;;;;;;;1.67;0.20;;;;;;;16.89;61.21;100622.09;5003592;27;126495;-58
2020/12/23 01:14:03;;;;;;;0.52;0.20;;;;;;;16.87;61.14;100618.88;4984610;27;128477;-58
2020/12/23 01:16:29;;;;;;;0.50;0.10;;;;;;;16.89;60.98;100624.81;5003638;27;128257;-58
2020/12/23 01:18:55;;;;;;;1.15;0.20;;;;;;;16.87;60.96;100619.69;5003986;27;123062;-58
2020/12/23 01:21:21;;;;;;;0.65;0.20;;;;;;;16.83;61.18;100615.97;5017369;27;128149;-58
2020/12/23 01:23:47;;;;;;;0.47;0.13;;;;;;;16.85;61.09;100619.16;5023920;27;98769;-58
2020/12/23 01:26:13;;;;;;;0.60;0.20;;;;;;;16.85;61.01;100616.44;5024334;27;97809;-58
2020/12/23 01:28:39;;;;;;;0.55;0.10;;;;;;;16.84;61.29;100606.69;5023806;27;124397;-58
2020/12/23 01:31:06;;;;;;;0.60;0.20;;;;;;;16.86;61.03;100601.75;5023147;27;98366;-58
2020/12/23 01:33:32;;;;;;;0.55;0.20;;;;;;;16.82;61.08;100598.03;5021415;27;99147;-58
2020/12/23 01:35:58;;;;;;;0.70;0.20;;;;;;;16.83;61.12;100601.56;5024227;27;97958;-58
2020/12/23 01:38:24;;;;;;;0.68;0.20;;;;;;;16.82;61.15;100600.75;5002868;27;112137;-58
2020/12/23 01:40:58;;;;;;;0.68;0.20;;;;;;;16.79;61.25;100595.13;5002964;27;127169;-58
2020/12/23 01:43:24;;;;;;;0.80;0.20;;;;;;;16.83;60.91;100598.84;5002081;27;99454;-58
2020/12/23 01:45:50;;;;;;;0.90;0.20;;;;;;;16.81;61.02;100601.03;5002964;27;98046;-58
2020/12/23 01:48:29;;;;;;;0.50;0.13;;;;;;;16.77;61.18;100602.75;5003850;27;97812;-58
2020/12/23 01:50:58;;;;;;;0.45;0.10;;;;;;;16.79;61.02;100601.34;5002854;27;104039;-58
2020/12/23 01:53:26;;;;;;;0.70;0.10;;;;;;;16.81;61.02;100595.59;5003257;27;98696;-58
2020/12/23 01:55:52;;;;;;;1.10;0.20;;;;;;;16.79;60.93;100592.38;5003568;27;97878;-58
2020/12/23 01:58:18;;;;;;;0.50;0.10;;;;;;;16.79;60.89;100593.19;5013279;27;97881;-58
2020/12/23 02:00:44;;;;;;;0.40;0.10;;;;;;;16.78;61.08;100593.47;5023654;27;98519;-58
2020/12/23 02:03:11;;;;;;;0.60;0.20;;;;;;;16.79;60.94;100581.50;5022905;27;128293;-58
2020/12/23 02:05:38;;;;;;;0.65;0.20;;;;;;;16.77;60.96;100586.44;5023527;27;107734;-58
2020/12/23 02:08:04;;;;;;;0.98;0.10;;;;;;;16.78;60.86;100582.59;5024020;27;98104;-58
2020/12/23 02:10:31;;;;;;;0.60;0.10;;;;;;;16.78;60.83;100577.97;5022937;27;127476;-58
2020/12/23 02:12:58;;;;;;;0.38;0.13;;;;;;;16.78;60.67;100585.31;5004988;27;98903;-58
2020/12/23 02:15:24;;;;;;;0.40;0.10;;;;;;;16.76;60.97;100593.78;5011485;27;97979;-59
2020/12/23 02:17:50;;;;;;;0.88;0.20;;;;;;;16.76;60.99;100601.97;5002270;27;122973;-58
2020/12/23 02:20:17;;;;;;;0.30;0.10;;;;;;;16.77;61.00;100594.59;5001550;27;128983;-58
2020/12/23 02:22:44;;;;;;;0.68;0.10;;;;;;;16.78;61.03;100597.03;5002340;27;98342;-58
2020/12/23 02:25:10;;;;;;;0.40;0.20;;;;;;;16.79;60.89;100584.22;5007480;27;98579;-58
2020/12/23 02:27:37;;;;;;;0.30;0.10;;;;;;;16.76;60.96;100569.28;5021693;27;97803;-58
2020/12/23 02:30:05;;;;;;;0.40;0.20;;;;;;;16.78;60.82;100572.53;5023017;27;98855;-58
2020/12/23 02:32:31;;;;;;;0.43;0.17;;;;;;;16.78;60.82;100577.97;5023654;27;106432;-59
2020/12/23 02:34:57;;;;;;;2.20;0.20;;;;;;;16.79;60.77;100576.84;5020423;27;121622;-58
2020/12/23 02:37:23;;;;;;;0.55;0.20;;;;;;;16.78;60.81;100577.97;5002271;27;122849;-58
2020/12/23 02:39:54;;;;;;;0.60;0.20;;;;;;;16.78;60.74;100566.25;5009910;27;127689;-58
2020/12/23 02:42:22;;;;;;;0.50;0.10;;;;;;;16.78;60.78;100577.16;5002754;27;117945;-58
2020/12/23 02:44:48;;;;;;;0.50;0.20;;;;;;;16.79;60.91;100567.88;5002767;27;98179;-58
2020/12/23 02:47:16;;;;;;;0.70;0.15;;;;;;;16.76;60.83;100550.25;5001766;27;112459;-58
2020/12/23 02:49:42;;;;;;;0.73;0.20;;;;;;;16.80;60.80;100555.88;5003124;27;98318;-58
2020/12/23 02:52:09;;;;;;;0.70;0.20;;;;;;;16.77;60.69;100562.72;5001254;27;98219;-58
2020/12/23 02:54:35;;;;;;;0.55;0.20;;;;;;;16.80;60.64;100574.94;5002164;27;114559;-59
2020/12/23 02:57:02;;;;;;;0.75;0.20;;;;;;;16.80;60.89;100577.66;5000948;27;111271;-58
2020/12/23 02:59:28;;;;;;;0.45;0.20;;;;;;;16.81;60.77;100573.81;5010156;27;98304;-58
2020/12/23 03:01:54;;;;;;;0.60;0.20;;;;;;;16.78;60.88;100572.53;5019746;27;128557;-58
2020/12/23 03:04:20;;;;;;;0.60;0.20;;;;;;;16.78;60.85;100575.25;5019618;27;128184;-58
2020/12/23 03:06:46;;;;;;;0.50;0.10;;;;;;;16.79;60.72;100570.63;5011964;27;123694;-58
2020/12/23 03:09:13;;;;;;;0.40;0.20;;;;;;;16.79;60.79;100560.53;5002765;27;127807;-58
2020/12/23 03:11:39;;;;;;;0.30;0.10;;;;;;;16.84;60.52;100568.56;4986936;27;98908;-58
2020/12/23 03:14:08;;;;;;;0.57;0.15;;;;;;;16.88;60.49;100568.75;5002016;27;103598;-58
2020/12/23 03:16:34;;;;;;;0.60;0.20;;;;;;;16.89;60.36;100568.44;5001950;27;112742;-58
2020/12/23 03:19:00;;;;;;;0.30;0.10;;;;;;;16.92;60.19;100558.88;5003831;27;97787;-58
2020/12/23 03:21:26;;;;;;;0.40;0.13;;;;;;;16.94;60.14;100553.94;5022126;27;98511;-58
2020/12/23 03:23:52;;;;;;;0.70;0.20;;;;;;;16.93;60.16;100549.59;5002515;27;97912;-58
2020/12/23 03:26:18;;;;;;;0.40;0.20;;;;;;;16.95;60.38;100550.09;5001529;27;121801;-58
2020/12/23 03:28:44;;;;;;;0.70;0.20;;;;;;;16.96;59.96;100546.25;5000250;27;128687;-58
2020/12/23 03:31:10;;;;;;;0.40;0.20;;;;;;;16.97;59.99;100544.34;5001149;27;126962;-58
2020/12/23 03:33:37;;;;;;;0.60;0.20;;;;;;;16.91;60.09;100539.00;4984681;27;97980;-58
2020/12/23 03:36:03;;;;;;;1.05;0.20;;;;;;;16.96;60.06;100526.41;5000692;27;97852;-58
2020/12/23 03:38:29;;;;;;;0.40;0.10;;;;;;;16.96;60.06;100540.00;5017232;27;98479;-58
2020/12/23 03:40:55;;;;;;;0.47;0.20;;;;;;;16.98;59.79;100540.50;5001529;27;128260;-58
2020/12/23 03:43:22;;;;;;;0.40;0.10;;;;;;;16.93;60.14;100534.06;4999003;27;127480;-58
2020/12/23 03:45:49;;;;;;;1.20;0.20;;;;;;;16.93;60.23;100525.06;5012377;27;99033;-58
2020/12/23 03:48:15;;;;;;;0.57;0.10;;;;;;;16.96;60.25;100527.19;5021736;27;98966;-58
2020/12/23 03:50:41;;;;;;;0.50;0.20;;;;;;;16.96;60.00;100523.66;5012527;27;126629;-58
2020/12/23 03:53:08;;;;;;;0.73;0.20;;;;;;;16.95;60.05;100530.22;5001043;27;104321;-58
2020/12/23 03:55:34;;;;;;;0.30;0.10;;;;;;;16.96;59.99;100527.19;5002856;27;100641;-58
2020/12/23 03:58:00;;;;;;;0.47;0.17;;;;;;;16.96;59.88;100540.00;5021194;27;127239;-58
2020/12/23 04:00:26;;;;;;;0.60;0.20;;;;;;;16.96;59.90;100534.56;5012551;27;128336;-58
2020/12/23 04:02:52;;;;;;;0.40;0.10;;;;;;;16.93;60.09;100530.53;5000478;27;127542;-58
2020/12/23 04:05:18;;;;;;;0.40;0.10;;;;;;;16.96;60.00;100540.00;5001344;27;119299;-58
2020/12/23 04:07:44;;;;;;;0.82;0.13;;;;;;;16.91;60.00;100541.72;5001469;27;127882;-58
2020/12/23 04:10:10;;;;;;;1.05;0.10;;;;;;;16.98;60.03;100535.88;4998575;27;126635;-58
2020/12/23 04:12:36;;;;;;;1.33;0.20;;;;;;;16.93;60.10;100546.88;4998828;27;122996;-58
2020/12/23 04:15:06;;;;;;;0.60;0.20;;;;;;;16.90;60.03;100542.84;5014148;27;97708;-58
2020/12/23 04:17:33;;;;;;;0.63;0.10;;;;;;;16.92;59.92;100550.69;5020175;27;112431;-58
2020/12/23 04:19:59;;;;;;;0.77;0.20;;;;;;;16.90;59.92;100551.03;5007455;27;98567;-58
2020/12/23 04:22:28;;;;;;;0.47;0.20;;;;;;;16.91;60.10;100546.38;5021249;27;119985;-58
2020/12/23 04:24:57;;;;;;;0.50;0.20;;;;;;;16.90;60.12;100542.84;5021896;27;97764;-58
2020/12/23 04:27:23;;;;;;;0.52;0.20;;;;;;;16.88;60.28;100539.63;5021664;27;98479;-58
2020/12/23 04:29:49;;;;;;;0.50;0.20;;;;;;;16.90;60.20;100540.13;5015357;27;127528;-58
2020/12/23 04:32:15;;;;;;;0.70;0.30;;;;;;;16.89;60.33;100543.94;5001820;27;97981;-58
2020/12/23 04:34:41;;;;;;;0.70;0.30;;;;;;;16.89;60.16;100545.88;5018831;27;97965;-58
2020/12/23 04:37:07;;;;;;;0.60;0.20;;;;;;;16.89;60.11;100541.22;4992985;27;119246;-58
2020/12/23 04:39:33;;;;;;;0.90;0.30;;;;;;;16.89;60.13;100557.56;5002635;27;115660;-58
2020/12/23 04:41:59;;;;;;;0.60;0.30;;;;;;;16.91;60.10;100562.72;5003517;27;128434;-58
2020/12/23 04:44:25;;;;;;;1.10;0.45;;;;;;;16.89;60.07;100556.75;5021650;27;115277;-58
2020/12/23 04:46:51;;;;;;;2.95;0.35;;;;;;;16.88;60.18;100552.44;5005075;27;127979;-58
2020/12/23 04:49:20;;;;;;;0.80;0.35;;;;;;;16.88;60.16;100555.97;4995590;27;106418;-58
2020/12/23 04:51:48;;;;;;;1.10;0.70;;;;;;;16.88;60.40;100549.72;4986387;27;98487;-59
2020/12/23 04:54:14;;;;;;;1.30;0.70;;;;;;;16.88;59.91;100553.22;4969313;27;114239;-58
2020/12/23 04:56:40;;;;;;;1.70;0.82;;;;;;;16.87;59.96;100548.09;4983421;27;128109;-59
2020/12/23 04:59:06;;;;;;;1.95;0.90;;;;;;;16.86;60.33;100550.03;5003759;27;128217;-58
2020/12/23 05:01:32;;;;;;;1.05;0.65;;;;;;;16.88;60.28;100539.63;5003244;27;127675;-58
2020/12/23 05:03:58;;;;;;;1.20;0.70;;;;;;;16.88;60.17;100528.72;5004277;27;118748;-58
2020/12/23 05:06:24;;;;;;;1.75;0.70;;;;;;;16.86;60.28;100530.16;5003412;27;127652;-58
2020/12/23 05:08:51;;;;;;;1.27;0.60;;;;;;;16.85;60.25;100534.78;5003610;27;98448;-58
2020/12/23 05:11:17;;;;;;;0.98;0.47;;;;;;;16.87;60.07;100535.28;5004585;27;98235;-58
2020/12/23 05:13:43;;;;;;;1.08;0.68;;;;;;;16.89;60.04;100537.69;5002771;27;98954;-58
2020/12/23 05:16:11;;;;;;;0.93;0.40;;;;;;;16.85;60.20;100542.94;5018049;27;128567;-58
2020/12/23 05:18:39;;;;;;;1.20;0.50;;;;;;;16.87;60.14;100539.94;5023714;27;120802;-58
2020/12/23 05:21:14;;;;;;;1.17;0.60;;;;;;;16.84;60.20;100541.34;5024569;27;106346;-58
2020/12/23 05:23:47;;;;;;;1.15;0.55;;;;;;;16.85;60.08;100545.66;5024697;27;97705;-58
2020/12/23 05:26:14;;;;;;;1.10;0.80;;;;;;;16.84;60.18;100546.00;5024836;27;101681;-58
2020/12/23 05:28:41;;;;;;;1.30;0.90;;;;;;;16.84;60.09;100546.00;5022112;27;98447;-60
2020/12/23 05:31:10;;;;;;;2.47;1.25;;;;;;;16.84;60.18;100549.50;5022884;27;98262;-58
2020/12/23 05:33:37;;;;;;;1.35;1.00;;;;;;;16.82;60.29;100543.59;5023868;27;97652;-58
2020/12/23 05:36:07;;;;;;;1.45;1.00;;;;;;;16.81;60.27;100550.13;5024664;27;107335;-58
2020/12/23 05:38:34;;;;;;;1.63;1.10;;;;;;;16.80;60.35;100545.00;5013968;27;117496;-58
2020/12/23 05:41:02;;;;;;;1.20;0.80;;;;;;;16.78;60.31;100533.59;5003330;27;118197;-58
2020/12/23 05:43:28;;;;;;;1.52;0.80;;;;;;;16.82;60.21;100531.88;5004233;27;99662;-58
2020/12/23 05:45:59;;;;;;;1.13;0.60;;;;;;;16.78;60.46;100530.88;5003784;27;128917;-58
2020/12/23 05:48:26;;;;;;;0.95;0.45;;;;;;;16.79;60.41;100527.88;5002960;27;118188;-58
2020/12/23 05:50:52;;;;;;;1.00;0.63;;;;;;;16.80;60.24;100526.75;5009256;27;115962;-58
2020/12/23 05:53:18;;;;;;;0.93;0.50;;;;;;;16.78;60.36;100539.03;5023127;27;121547;-58
2020/12/23 05:55:48;;;;;;;0.90;0.47;;;;;;;16.76;60.24;100522.22;5010996;27;98060;-58
2020/12/23 05:58:29;;;;;;;0.98;0.40;;;;;;;16.74;60.46;100533.44;5003795;27;98744;-58
2020/12/23 06:01:03;;;;;;;0.75;0.40;;;;;;;16.76;60.36;100533.91;5003391;27;99011;-58
2020/12/23 06:03:58;;;;;;;0.82;0.50;;;;;;;16.74;60.56;100532.59;5002480;27;97966;-59
2020/12/23 06:06:28;;;;;;;0.90;0.50;;;;;;;16.74;60.54;100525.28;5002474;27;98841;-58
2020/12/23 06:09:05;;;;;;;0.82;0.40;;;;;;;16.78;60.26;100539.88;5004433;27;98346;-58
2020/12/23 06:11:40;;;;;;;1.10;0.50;;;;;;;16.75;60.64;100536.97;5005564;27;97987;-58
2020/12/23 06:14:12;;;;;;;0.90;0.47;;;;;;;16.75;60.38;100534.22;5004057;27;97914;-58
2020/12/23 06:17:03;;;;;;;0.90;0.40;;;;;;;16.76;60.29;100530.41;5002024;27;98425;-58
2020/12/23 06:19:36;;;;;;;0.75;0.40;;;;;;;16.75;60.62;100518.72;5003304;27;98454;-58
2020/12/23 06:22:03;;;;;;;0.93;0.30;;;;;;;16.77;60.59;100527.34;5002846;27;98638;-58
2020/12/23 06:24:29;;;;;;;0.98;0.40;;;;;;;16.77;60.56;100538.25;5003334;27;113424;-58
2020/12/23 06:26:58;;;;;;;0.80;0.40;;;;;;;16.78;60.44;100531.72;5005777;27;99283;-58
2020/12/23 06:29:29;;;;;;;0.98;0.47;;;;;;;16.76;60.47;100541.28;5002908;27;102127;-58
2020/12/23 06:32:09;;;;;;;0.70;0.40;;;;;;;16.74;60.46;100547.03;5002529;27;98683;-58
2020/12/23 06:34:38;;;;;;;0.80;0.40;;;;;;;16.74;60.39;100547.03;5020138;27;97696;-58
2020/12/23 06:37:24;;;;;;;1.50;0.30;;;;;;;16.75;60.33;100547.84;5023128;27;98023;-59
2020/12/23 06:39:51;;;;;;;0.70;0.30;;;;;;;16.76;60.33;100555.69;5023362;27;98804;-58
2020/12/23 06:42:17;;;;;;;0.80;0.30;;;;;;;16.78;60.48;100567.09;5023597;27;97664;-58
2020/12/23 06:44:43;;;;;;;0.85;0.40;;;;;;;16.78;60.35;100555.38;5004914;27;97709;-58
2020/12/23 06:47:15;;;;;;;0.70;0.25;;;;;;;16.77;60.39;100551.03;5020617;27;98202;-58
2020/12/23 06:49:42;;;;;;;0.77;0.30;;;;;;;16.77;60.42;100559.22;5020332;27;98327;-58
2020/12/23 06:52:24;;;;;;;0.77;0.30;;;;;;;16.74;60.58;100560.66;5022936;27;98004;-58
2020/12/23 06:55:04;;;;;;;0.77;0.30;;;;;;;16.74;60.47;100568.81;5022578;27;97816;-58
2020/12/23 06:57:39;;;;;;;0.80;0.30;;;;;;;16.72;60.58;100562.81;5020946;27;99070;-58
2020/12/23 07:00:23;;;;;;;0.60;0.30;;;;;;;16.73;60.38;100564.47;5022649;27;98334;-58
2020/12/23 07:02:58;;;;;;;0.63;0.30;;;;;;;16.74;60.32;100565.25;5022341;27;98095;-58
2020/12/23 07:05:24;;;;;;;0.57;0.20;;;;;;;16.77;60.53;100570.09;5010449;27;97846;-58
2020/12/23 07:08:04;;;;;;;0.70;0.20;;;;;;;16.78;60.46;100580.69;5000238;27;98705;-58
2020/12/23 07:10:36;;;;;;;0.73;0.22;;;;;;;16.76;60.27;100582.91;5007509;27;98350;-58
2020/12/23 07:13:16;;;;;;;0.80;0.30;;;;;;;16.79;60.38;100576.06;5020061;27;98750;-58
2020/12/23 07:15:52;;;;;;;0.65;0.30;;;;;;;16.78;60.52;100572.53;5019359;27;97950;-58
2020/12/23 07:18:26;;;;;;;0.80;0.30;;;;;;;16.78;60.44;100568.97;5000013;27;98511;-58
2020/12/23 07:21:08;;;;;;;0.70;0.30;;;;;;;16.76;60.16;100572.03;5007419;27;114000;-58
2020/12/23 07:23:35;;;;;;;0.90;0.40;;;;;;;16.78;60.36;100572.53;5020261;27;98088;-58
2020/12/23 07:26:06;;;;;;;0.75;0.30;;;;;;;16.78;60.19;100567.09;5020238;27;97732;-58
2020/12/23 07:28:38;;;;;;;0.93;0.30;;;;;;;16.78;60.29;100574.44;5020445;27;99187;-58
2020/12/23 07:31:04;;;;;;;0.73;0.30;;;;;;;16.79;60.44;100565.97;5019979;27;103865;-58
2020/12/23 07:33:31;;;;;;;0.93;0.40;;;;;;;16.80;60.48;100561.31;5019008;27;121143;-58
2020/12/23 07:35:59;;;;;;;0.90;0.40;;;;;;;16.79;60.07;100571.41;5012050;27;97926;-58
2020/12/23 07:38:31;;;;;;;1.50;0.50;;;;;;;16.81;60.32;100573.81;4999712;27;99233;-58
2020/12/23 07:40:57;;;;;;;0.77;0.47;;;;;;;16.80;60.11;100577.66;5000015;27;97934;-58
2020/12/23 07:43:24;;;;;;;0.68;0.40;;;;;;;16.81;60.21;100577.34;4998762;27;123185;-59
2020/12/23 07:45:50;;;;;;;1.00;0.50;;;;;;;16.83;60.45;100577.06;5001066;27;97675;-58
2020/12/23 07:48:18;;;;;;;1.30;0.73;;;;;;;16.82;60.35;100581.69;4998191;27;98349;-58
2020/12/23 07:50:52;;;;;;;1.42;0.75;;;;;;;16.79;60.38;100584.22;5002213;27;98820;-58
2020/12/23 07:53:22;;;;;;;1.52;0.98;;;;;;;16.80;60.17;100583.91;5019571;27;99089;-58
2020/12/23 07:56:05;;;;;;;2.10;1.00;;;;;;;16.80;60.18;100583.09;5019671;27;101888;-58
2020/12/23 07:58:31;;;;;;;1.85;1.50;;;;;;;16.82;60.29;100589.88;5019491;27;97683;-58
2020/12/23 08:00:58;;;;;;;2.55;2.35;;;;;;;16.85;59.98;100588.44;5014533;27;98221;-58
2020/12/23 08:03:31;;;;;;;2.80;2.60;;;;;;;16.86;60.29;100587.34;5005878;27;98633;-59
2020/12/23 08:06:10;;;;;;;2.42;2.20;;;;;;;16.82;60.48;100589.88;5016914;27;97818;-58
2020/12/23 08:08:37;;;;;;;2.80;2.13;;;;;;;16.83;60.31;100583.31;4999190;27;99222;-58
2020/12/23 08:11:14;;;;;;;2.63;2.15;;;;;;;16.83;60.31;100588.75;5000775;27;98860;-58
2020/12/23 08:13:41;;;;;;;2.50;2.05;;;;;;;16.85;60.34;100594.66;5007537;27;98330;-58
2020/12/23 08:16:15;;;;;;;2.47;2.20;;;;;;;16.85;60.31;100588.44;5011490;27;98011;-58
2020/12/23 08:18:42;;;;;;;3.83;2.55;;;;;;;16.90;60.40;100580.16;5013274;27;99061;-58
2020/12/23 08:21:16;;;;;;;3.00;2.38;;;;;;;16.90;60.31;100574.72;5006316;27;98074;-58
2020/12/23 08:23:42;;;;;;;3.03;2.00;;;;;;;16.90;60.48;100574.72;5022989;27;98794;-58
2020/12/23 08:26:09;;;;;;;2.75;2.33;;;;;;;16.92;60.31;100576.00;5023349;27;98078;-58
2020/12/23 08:28:40;;;;;;;46.92;33.20;;;;;;;16.93;60.46;100565.91;5023371;27;98451;-58
2020/12/23 08:31:10;;;;;;;50.45;39.03;;;;;;;16.94;60.53;100567.56;5003127;27;107853;-58
2020/12/23 08:33:36;;;;;;;46.35;35.08;;;;;;;16.96;60.45;100569.94;4998287;27;98314;-58
2020/12/23 08:36:04;;;;;;;41.42;31.52;;;;;;;16.94;60.52;100573.00;4999919;27;123593;-58
2020/12/23 08:38:30;;;;;;;36.17;29.15;;;;;;;16.96;60.71;100570.75;5002968;27;98651;-58
2020/12/23 08:40:58;;;;;;;33.75;26.60;;;;;;;16.98;60.75;100562.28;5021092;27;99379;-58
2020/12/23 08:43:26;;;;;;;32.00;24.88;;;;;;;16.99;60.68;100566.63;5022531;27;114453;-58
2020/12/23 08:45:58;;;;;;;27.70;22.40;;;;;;;16.99;60.83;100567.44;5022361;27;98667;-58
2020/12/23 08:48:25;;;;;;;26.63;21.67;;;;;;;17.02;60.95;100571.47;5020628;27;99152;-58
2020/12/23 08:50:56;;;;;;;22.40;19.27;;;;;;;17.00;60.88;100571.75;5022246;27;118631;-58
2020/12/23 08:53:35;;;;;;;22.67;18.48;;;;;;;16.99;61.23;100572.06;5020880;27;97867;-58
2020/12/23 08:56:20;;;;;;;21.20;17.08;;;;;;;17.04;61.13;100567.28;5022269;27;109731;-58
2020/12/23 08:59:00;;;;;;;18.35;15.05;;;;;;;17.00;61.14;100563.59;5022691;27;98569;-58
2020/12/23 09:01:28;;;;;;;16.95;14.10;;;;;;;17.04;61.33;100566.50;5022111;27;97753;-58
2020/12/23 09:04:07;;;;;;;14.88;13.20;;;;;;;17.04;61.15;100566.50;5022345;27;97983;-58
2020/12/23 09:06:44;;;;;;;15.98;13.70;;;;;;;17.05;61.40;100568.09;5021066;27;98043;-58
2020/12/23 09:09:23;;;;;;;14.80;13.02;;;;;;;17.06;61.31;100570.53;5006370;27;98347;-58
2020/12/23 09:11:53;;;;;;;13.57;12.18;;;;;;;17.08;61.33;100562.84;5002187;27;98812;-58
2020/12/23 09:14:39;;;;;;;14.13;12.05;;;;;;;17.14;61.35;100567.06;5012505;27;98043;-58
2020/12/23 09:17:21;;;;;;;13.25;10.88;;;;;;;17.15;61.37;100567.88;5023068;27;98380;-58
2020/12/23 09:19:54;;;;;;;11.02;9.77;;;;;;;17.14;61.45;100569.78;5021074;27;98597;-59
2020/12/23 09:22:28;;;;;;;10.77;9.68;;;;;;;17.14;61.40;100563.53;5020779;27;98426;-58
2020/12/23 09:25:26;;;;;;;10.25;9.25;;;;;;;17.17;61.34;100557.47;5003607;27;98485;-59
2020/12/23 09:27:57;;;;;;;9.35;8.43;;;;;;;17.18;61.43;100554.44;5011807;27;98135;-58
2020/12/23 09:30:43;;;;;;;9.20;8.30;;;;;;;17.20;61.47;100566.94;5010443;27;98905;-58
2020/12/23 09:33:22;;;;;;;8.40;7.55;;;;;;;17.18;61.46;100557.16;5022822;27;98142;-58
2020/12/23 09:35:50;;;;;;;8.23;7.25;;;;;;;17.21;61.44;100558.44;5011355;27;98148;-58
2020/12/23 09:38:24;;;;;;;7.45;6.53;;;;;;;17.20;61.57;100569.66;5016269;27;97755;-58
2020/12/23 09:40:55;;;;;;;6.90;6.20;;;;;;;17.21;61.62;100560.38;5021551;27;98260;-58
2020/12/23 09:43:28;;;;;;;6.80;6.13;;;;;;;17.21;61.74;100550.28;4991463;27;98323;-58
2020/12/23 09:45:56;;;;;;;6.35;5.75;;;;;;;17.28;61.46;100550.66;5001726;27;98049;-58
2020/12/23 09:48:23;;;;;;;6.15;5.55;;;;;;;17.34;61.29;100543.19;4993310;27;113965;-58
2020/12/23 09:50:49;;;;;;;6.13;5.15;;;;;;;17.38;61.39;100539.50;5020794;27;118250;-58
2020/12/23 09:53:15;;;;;;;6.35;5.60;;;;;;;17.46;61.21;100539.88;5002032;27;128012;-58
2020/12/23 09:55:42;;;;;;;6.38;5.47;;;;;;;17.48;61.16;100532.19;4979928;28;126641;-58
2020/12/23 09:58:09;;;;;;;6.07;5.47;;;;;;;17.52;61.09;100530.44;4981838;28;97871;-57
2020/12/23 10:00:35;;;;;;;6.15;5.55;;;;;;;17.55;61.21;100530.63;4990089;27;98373;-58
2020/12/23 10:03:01;;;;;;;6.78;6.10;;;;;;;17.57;61.13;100522.16;4987547;27;98746;-57
2020/12/23 10:05:29;;;;;;;6.65;5.95;;;;;;;17.61;61.01;100523.16;4980537;28;128163;-57
2020/12/23 10:07:55;;;;;;;7.18;6.47;;;;;;;17.63;61.21;100513.53;4982526;27;97671;-58
2020/12/23 10:10:21;;;;;;;6.88;6.28;;;;;;;17.65;61.26;100508.56;4980722;28;99186;-58
2020/12/23 10:12:47;;;;;;;6.80;6.10;;;;;;;17.67;61.17;100503.59;4979463;27;128923;-57
2020/12/23 10:15:13;;;;;;;6.20;5.60;;;;;;;17.68;61.26;100509.84;4980970;28;127644;-58
2020/12/23 10:17:39;;;;;;;6.50;5.90;;;;;;;17.66;61.22;100502.00;4980128;28;121761;-58
2020/12/23 10:20:06;;;;;;;6.88;6.18;;;;;;;17.70;61.38;100494.00;4979324;28;128205;-58
2020/12/23 10:22:32;;;;;;;6.00;5.40;;;;;;;17.72;61.16;100486.28;4989302;27;98824;-58
2020/12/23 10:24:58;;;;;;;5.35;4.82;;;;;;;17.70;61.34;100487.75;4999516;27;127687;-58
2020/12/23 10:27:25;;;;;;;5.85;4.82;;;;;;;17.74;61.36;100497.69;5000808;27;123077;-58
2020/12/23 10:29:51;;;;;;;5.70;5.03;;;;;;;17.77;61.34;100499.03;5001370;27;98368;-58
2020/12/23 10:32:19;;;;;;;4.80;4.28;;;;;;;17.78;61.47;100503.38;4994935;27;128192;-58
2020/12/23 10:34:45;;;;;;;4.75;4.25;;;;;;;17.77;61.93;100496.31;4962150;28;98176;-58
2020/12/23 10:37:11;;;;;;;4.13;3.72;;;;;;;17.77;61.55;100499.03;4980493;27;106722;-58
2020/12/23 10:39:37;;;;;;;4.05;3.65;;;;;;;17.75;61.79;100498.53;4945167;28;116965;-58
2020/12/23 10:42:03;;;;;;;4.20;3.60;;;;;;;17.70;61.99;100488.53;4961305;28;128094;-58
2020/12/23 10:44:29;;;;;;;3.75;3.20;;;;;;;17.66;61.74;100485.66;4979513;28;127554;-58
2020/12/23 10:46:58;;;;;;;3.63;3.33;;;;;;;17.71;61.89;100484.69;4960704;28;122084;-58
2020/12/23 10:49:25;;;;;;;3.85;3.40;;;;;;;17.74;61.72;100477.81;4978838;27;100825;-58
2020/12/23 10:51:56;;;;;;;3.70;3.40;;;;;;;17.76;61.86;100472.88;4961658;28;117148;-57
2020/12/23 10:54:23;;;;;;;4.22;3.53;;;;;;;17.79;62.04;100474.97;4991967;27;98371;-58
2020/12/23 10:56:49;;;;;;;3.35;3.05;;;;;;;17.82;62.02;100475.16;5021040;27;98870;-59
2020/12/23 10:59:15;;;;;;;3.25;2.95;;;;;;;17.82;61.64;100466.19;5008314;27;126346;-56
2020/12/23 11:01:42;;;;;;;3.35;3.05;;;;;;;17.83;61.64;100462.31;5020543;27;98162;-57
2020/12/23 11:04:08;;;;;;;3.30;3.00;;;;;;;17.86;61.83;100462.50;5020605;27;97915;-58
2020/12/23 11:06:34;;;;;;;3.35;3.05;;;;;;;17.85;61.94;100455.44;5020099;27;122991;-56
2020/12/23 11:09:00;;;;;;;3.22;2.92;;;;;;;17.85;61.92;100451.91;5018202;27;98983;-56
2020/12/23 11:11:27;;;;;;;2.63;2.42;;;;;;;17.83;62.06;100446.75;5020285;27;98988;-57
2020/12/23 11:13:53;;;;;;;3.35;3.05;;;;;;;17.84;62.17;100442.94;5020493;27;98268;-56
2020/12/23 11:16:19;;;;;;;2.53;2.33;;;;;;;17.82;62.26;100439.72;5020677;27;97778;-56
2020/12/23 11:18:46;;;;;;;2.97;2.50;;;;;;;17.87;62.21;100430.56;5020495;27;98509;-56
2020/12/23 11:21:15;;;;;;;2.50;2.30;;;;;;;17.93;62.05;100432.06;5020673;27;99093;-57
2020/12/23 11:23:42;;;;;;;2.58;2.25;;;;;;;18.01;61.73;100436.72;5019563;27;102378;-57
2020/12/23 11:26:21;;;;;;;2.30;2.00;;;;;;;18.06;61.82;100433.84;5020384;27;97841;-56